Time;durP1;ratioP1;P1;durP2;ratioP2;P2;SDS_P1;SDS_P2;PMS_P1;PMS_P2;Temp;Humidity;BMP_temperature;BMP_pressure;BME280_temperature;BME280_humidity;BME280_pressure;Samples;Min_cycle;Max_cycle;Signal;HPM_P1;HPM_P2
2023/08/15 00:14:27;;;;;;;10.52;5.85;;;;;;;22.76;54.12;100570.56;41511792;28;20076;-76
2023/08/15 00:34:28;;;;;;;8.05;5.30;;;;;;;22.03;54.64;100478.75;41516247;28;20489;-76
2023/08/15 00:54:28;;;;;;;4.95;3.78;;;;;;;22.88;54.83;100657.69;41513118;28;20046;-76
2023/08/15 01:14:41;;;;;;;4.57;4.15;;;;;;;21.18;54.77;100402.78;41501316;28;20080;-75
2023/08/15 01:34:56;;;;;;;4.72;4.10;;;;;;;22.24;55.02;100586.13;41451936;28;20042;-74
2023/08/15 01:54:56;;;;;;;7.65;4.60;;;;;;;21.61;55.27;100491.69;41446529;28;20511;-74
2023/08/15 02:14:59;;;;;;;6.57;3.97;;;;;;;21.58;55.62;100492.78;41506984;28;20049;-76
2023/08/15 02:34:59;;;;;;;4.57;4.18;;;;;;;21.72;55.77;100504.88;41535179;28;20168;-81
2023/08/15 02:54:59;;;;;;;4.47;3.80;;;;;;;20.81;56.31;100416.94;41511968;28;20485;-77
2023/08/15 03:15:00;;;;;;;6.32;4.47;;;;;;;22.14;56.84;100643.19;41496152;28;20042;-75
2023/08/15 03:35:01;;;;;;;7.75;4.70;;;;;;;21.86;57.20;100608.41;41369607;28;20053;-76
2023/08/15 03:55:03;;;;;;;8.60;5.20;;;;;;;22.48;56.36;100638.75;41409261;28;20501;-72
2023/08/15 04:15:04;;;;;;;6.97;5.50;;;;;;;22.06;58.50;100680.72;41290428;28;20054;-70
2023/08/15 04:35:07;;;;;;;7.07;5.03;;;;;;;22.25;58.14;100688.03;41273641;28;20046;-74
2023/08/15 04:55:10;;;;;;;5.82;4.78;;;;;;;22.57;57.20;100699.72;41316427;28;20185;-71
2023/08/15 05:15:10;;;;;;;10.73;4.68;;;;;;;22.48;57.01;100688.06;41312973;28;20050;-72
2023/08/15 05:35:12;;;;;;;6.82;4.72;;;;;;;22.26;57.01;100615.03;41386114;28;20792;-72
2023/08/15 05:55:12;;;;;;;8.38;4.78;;;;;;;22.44;56.97;100620.69;41482343;28;20112;-80
2023/08/15 06:15:14;;;;;;;12.75;5.78;;;;;;;23.49;56.25;100716.09;41485615;28;20041;-77
2023/08/15 06:35:14;;;;;;;13.07;4.97;;;;;;;23.94;56.15;100693.94;41496176;28;21318;-82
2023/08/15 06:55:16;;;;;;;6.65;4.70;;;;;;;24.28;54.45;100698.19;41510371;28;20053;-82
2023/08/15 07:15:16;;;;;;;4.70;4.22;;;;;;;24.62;53.69;100682.84;41496508;28;20053;-79
2023/08/15 07:35:17;;;;;;;7.35;4.53;;;;;;;24.56;54.01;100662.19;41482283;28;20053;-82
2023/08/15 07:55:18;;;;;;;5.70;3.78;;;;;;;24.96;52.17;100670.25;41492609;28;20042;-81
2023/08/15 08:15:23;;;;;;;4.63;3.00;;;;;;;24.96;49.75;100635.81;41493370;28;20050;-81
2023/08/15 08:35:23;;;;;;;3.45;3.15;;;;;;;25.26;49.14;100656.06;41471815;28;20054;-80
2023/08/15 08:55:25;;;;;;;4.07;3.17;;;;;;;25.20;49.44;100628.31;41443109;28;20054;-78
2023/08/15 09:15:26;;;;;;;3.53;3.10;;;;;;;25.49;48.72;100650.53;41460390;28;20038;-80
2023/08/15 09:35:30;;;;;;;8.05;3.30;;;;;;;25.66;48.62;100620.63;41488799;28;20497;-79
2023/08/15 09:55:34;;;;;;;6.78;3.47;;;;;;;25.54;49.30;100613.81;41483471;28;20063;-75
2023/08/15 10:15:36;;;;;;;5.60;3.20;;;;;;;26.09;48.89;100642.31;41478457;28;20034;-75
2023/08/15 10:35:37;;;;;;;6.22;3.30;;;;;;;26.18;48.67;100633.47;41489271;28;20054;-79
2023/08/15 10:55:38;;;;;;;8.70;5.60;;;;;;;27.20;50.70;100616.66;41477299;28;20521;-72
2023/08/15 11:15:39;;;;;;;4.97;3.10;;;;;;;27.08;50.75;100608.91;41459501;28;20061;-76
2023/08/15 11:35:40;;;;;;;3.63;3.33;;;;;;;27.31;45.77;100590.66;41460372;28;20043;-75
2023/08/15 11:55:43;;;;;;;4.60;3.42;;;;;;;27.44;44.25;100574.31;41425209;28;20121;-77
2023/08/15 12:15:44;;;;;;;5.63;3.33;;;;;;;27.71;43.90;100569.84;41394375;28;20090;-82
2023/08/15 12:35:44;;;;;;;7.63;3.40;;;;;;;27.84;43.57;100540.13;41335586;28;20046;-77
2023/08/15 12:55:45;;;;;;;4.28;3.35;;;;;;;27.42;44.33;100543.56;41508166;28;20055;-76
2023/08/15 13:15:46;;;;;;;6.45;3.40;;;;;;;27.16;44.82;100494.69;41514894;28;20046;-77
2023/08/15 13:35:46;;;;;;;4.30;3.42;;;;;;;27.13;44.73;100479.03;41387345;28;20129;-80
2023/08/15 13:55:47;;;;;;;3.40;3.10;;;;;;;27.62;43.24;100499.78;41328534;28;20056;-75
2023/08/15 14:15:48;;;;;;;6.03;3.30;;;;;;;27.22;43.44;100444.53;41507275;28;20045;-76
2023/08/15 14:35:48;;;;;;;5.22;3.20;;;;;;;26.87;43.72;100436.50;41558575;28;20053;-74
2023/08/15 14:55:49;;;;;;;11.32;3.72;;;;;;;26.37;43.13;100303.34;41581639;28;20061;-77
2023/08/15 15:15:49;;;;;;;9.38;4.13;;;;;;;27.30;41.73;100444.56;41545327;28;20042;-78
2023/08/15 15:35:50;;;;;;;13.10;4.65;;;;;;;27.74;41.55;100374.47;41492864;28;20045;-81
2023/08/15 15:55:50;;;;;;;5.80;3.47;;;;;;;27.54;42.51;100430.59;41513482;28;20040;-78
2023/08/15 16:15:51;;;;;;;5.63;3.90;;;;;;;27.29;43.28;100429.63;41510774;28;20137;-78
2023/08/15 16:35:53;;;;;;;5.75;4.57;;;;;;;27.14;44.27;100414.25;41362494;28;20060;-76
2023/08/15 16:55:59;;;;;;;4.43;4.03;;;;;;;27.25;44.43;100454.88;41444914;28;20283;-82
2023/08/15 17:16:01;;;;;;;7.97;5.05;;;;;;;26.94;45.36;100418.97;41467209;28;20048;-80
2023/08/15 17:36:03;;;;;;;7.35;5.07;;;;;;;25.93;46.44;100271.47;41477792;28;20100;-74
2023/08/15 17:56:04;;;;;;;9.43;5.28;;;;;;;26.36;46.11;100405.22;41415533;28;20511;-73
2023/08/15 18:16:06;;;;;;;9.65;4.57;;;;;;;25.66;45.36;100307.69;41361657;28;20465;-77
2023/08/15 18:36:08;;;;;;;7.72;4.00;;;;;;;26.10;44.69;100421.06;41509616;28;20501;-74
2023/08/15 18:56:09;;;;;;;8.63;4.32;;;;;;;25.30;44.78;100317.38;41513009;28;20140;-74
2023/08/15 19:16:10;;;;;;;8.55;5.20;;;;;;;26.11;46.08;100451.09;41507172;28;20126;-74
2023/08/15 19:36:11;;;;;;;7.70;4.53;;;;;;;24.91;46.96;100315.75;41470785;28;20050;-74
2023/08/15 19:56:12;;;;;;;9.52;4.95;;;;;;;25.17;47.76;100408.66;41367722;28;20413;-74
2023/08/15 20:16:13;;;;;;;8.38;4.85;;;;;;;24.21;49.74;100342.47;41345861;28;20581;-73
2023/08/15 20:36:14;;;;;;;7.95;4.55;;;;;;;25.59;49.07;100592.16;41339399;28;20046;-74
2023/08/15 20:56:16;;;;;;;10.25;4.70;;;;;;;24.17;48.38;100354.28;41346385;28;20045;-73
2023/08/15 21:16:16;;;;;;;10.57;4.82;;;;;;;25.55;48.14;100571.22;41344197;28;20046;-73
2023/08/15 21:36:17;;;;;;;8.00;4.35;;;;;;;25.44;48.19;100562.59;41358815;28;20050;-78
2023/08/15 21:56:18;;;;;;;9.30;4.38;;;;;;;25.19;48.81;100552.41;41396200;28;20046;-73
2023/08/15 22:16:18;;;;;;;9.52;4.72;;;;;;;24.04;49.07;100407.50;41368043;28;20046;-73
2023/08/15 22:36:18;;;;;;;8.10;4.57;;;;;;;23.57;48.95;100345.44;41360395;28;20042;-76
2023/08/15 22:56:20;;;;;;;9.52;5.43;;;;;;;24.31;48.23;100383.00;41378927;28;20057;-72
2023/08/15 23:16:20;;;;;;;8.98;5.20;;;;;;;25.26;49.12;100545.59;41313490;28;20072;-74
2023/08/15 23:36:21;;;;;;;8.30;5.00;;;;;;;24.86;49.61;100527.22;41312736;28;21170;-75
2023/08/15 23:56:21;;;;;;;7.05;4.72;;;;;;;24.80;50.46;100538.38;41403323;28;20666;-75
